Time;durP1;ratioP1;P1;durP2;ratioP2;P2;SDS_P1;SDS_P2;PMS_P1;PMS_P2;Temp;Humidity;BMP_temperature;BMP_pressure;BME280_temperature;BME280_humidity;BME280_pressure;Samples;Min_cycle;Max_cycle;Signal;HPM_P1;HPM_P2
2022/12/24 00:02:09;;;;;;;12.77;9.93;;;;;;;3.62;73.05;98870.22;5071689;28;20040;-52
2022/12/24 00:04:34;;;;;;;13.05;9.45;;;;;;;3.62;72.82;98859.63;5070190;28;20115;-54
2022/12/24 00:07:00;;;;;;;13.15;9.18;;;;;;;3.66;72.79;98859.34;5072904;28;20029;-55
2022/12/24 00:09:25;;;;;;;12.55;9.15;;;;;;;3.71;72.92;98867.81;5075295;28;20111;-53
2022/12/24 00:11:51;;;;;;;14.48;10.73;;;;;;;3.70;72.92;98870.56;5075170;28;20036;-55
2022/12/24 00:14:16;;;;;;;14.93;10.30;;;;;;;3.68;73.38;98861.91;5075042;28;20029;-52
2022/12/24 00:16:41;;;;;;;15.60;10.68;;;;;;;3.67;72.70;98849.59;5074615;28;20371;-57
2022/12/24 00:19:07;;;;;;;12.80;9.50;;;;;;;3.67;73.27;98852.25;5075311;28;20036;-55
2022/12/24 00:21:32;;;;;;;14.68;9.45;;;;;;;3.62;72.75;98841.09;5075139;28;20036;-55
2022/12/24 00:23:58;;;;;;;13.30;9.27;;;;;;;3.71;72.41;98861.69;5075305;28;20036;-53
2022/12/24 00:26:23;;;;;;;12.23;8.90;;;;;;;3.70;73.11;98866.13;5074765;28;20016;-56
2022/12/24 00:28:49;;;;;;;15.65;10.25;;;;;;;3.70;72.69;98863.47;5075614;28;20037;-56
2022/12/24 00:31:17;;;;;;;13.82;9.25;;;;;;;3.69;72.92;98871.53;5075440;28;20068;-56
2022/12/24 00:33:45;;;;;;;13.10;9.23;;;;;;;3.64;73.08;98861.25;5074994;28;20032;-51
2022/12/24 00:36:10;;;;;;;14.45;10.02;;;;;;;3.67;72.60;98863.69;5075313;28;20047;-60
2022/12/24 00:38:36;;;;;;;12.57;9.27;;;;;;;3.71;72.69;98857.22;5074181;28;20029;-53
2022/12/24 00:41:03;;;;;;;15.00;10.27;;;;;;;3.74;72.62;98869.41;5074306;28;20074;-57
2022/12/24 00:43:30;;;;;;;13.13;9.35;;;;;;;3.69;72.41;98879.47;5074893;28;20041;-56
2022/12/24 00:45:55;;;;;;;14.35;10.20;;;;;;;3.69;72.54;98885.59;5075273;28;20035;-56
2022/12/24 00:48:21;;;;;;;16.02;10.95;;;;;;;3.54;72.75;98855.72;5073666;28;20037;-56
2022/12/24 00:50:48;;;;;;;17.55;11.52;;;;;;;3.68;72.51;98894.50;5074945;28;20028;-53
2022/12/24 00:53:13;;;;;;;17.08;10.88;;;;;;;3.65;72.54;98873.53;5074591;28;20028;-54
2022/12/24 00:55:38;;;;;;;14.77;10.88;;;;;;;3.70;72.68;98881.16;5073784;28;20043;-65
2022/12/24 00:58:04;;;;;;;18.17;11.63;;;;;;;3.69;72.63;98893.53;5074753;28;20105;-53
2022/12/24 01:00:29;;;;;;;17.15;10.55;;;;;;;3.68;72.49;98894.50;5074221;28;20033;-52
2022/12/24 01:02:55;;;;;;;15.57;11.35;;;;;;;3.76;72.34;98891.34;5074245;28;20033;-51
2022/12/24 01:05:21;;;;;;;18.33;11.82;;;;;;;3.58;72.50;98865.16;5074171;28;20057;-54
2022/12/24 01:07:47;;;;;;;18.08;12.18;;;;;;;3.53;73.26;98861.13;5075030;28;20040;-50
2022/12/24 01:10:18;;;;;;;17.88;12.02;;;;;;;3.72;72.91;98889.84;5074313;28;20036;-52
2022/12/24 01:12:45;;;;;;;18.35;12.50;;;;;;;3.70;73.17;98881.16;5074110;28;20044;-58
2022/12/24 01:15:12;;;;;;;21.08;12.50;;;;;;;3.68;72.84;98883.91;5073624;28;20444;-51
2022/12/24 01:17:38;;;;;;;18.75;12.43;;;;;;;3.63;73.66;98879.91;5074021;28;20040;-53
2022/12/24 01:20:06;;;;;;;21.75;13.32;;;;;;;3.65;73.28;98889.41;5073859;28;20028;-56
2022/12/24 01:22:31;;;;;;;18.27;12.70;;;;;;;3.66;73.54;98882.34;5074437;28;20172;-58
2022/12/24 01:24:57;;;;;;;23.63;13.77;;;;;;;3.69;73.56;98882.13;5073012;28;20427;-56
2022/12/24 01:27:22;;;;;;;19.63;13.02;;;;;;;3.64;73.17;98877.13;5074176;28;20078;-58
2022/12/24 01:29:48;;;;;;;21.15;13.40;;;;;;;3.63;73.04;98880.72;5072576;28;20102;-55
2022/12/24 01:32:13;;;;;;;21.05;14.07;;;;;;;3.63;73.46;98877.25;5073846;28;20079;-56
2022/12/24 01:34:39;;;;;;;20.85;14.02;;;;;;;3.61;73.50;98876.47;5073398;28;20444;-57
2022/12/24 01:37:04;;;;;;;22.08;14.00;;;;;;;3.60;73.58;98886.22;5073822;28;20037;-56
2022/12/24 01:39:29;;;;;;;32.63;20.17;;;;;;;3.59;73.33;98888.00;5073598;28;20387;-56
2022/12/24 01:44:41;;;;;;;22.77;13.82;;;;;;;3.59;73.46;98885.38;5073686;28;20046;-56
2022/12/24 01:47:19;;;;;;;21.73;13.52;;;;;;;3.63;73.39;98883.38;5073878;28;20033;-55
2022/12/24 01:50:02;;;;;;;22.65;14.43;;;;;;;3.57;73.94;98884.63;5072191;28;20028;-55
2022/12/24 01:52:33;;;;;;;19.88;13.60;;;;;;;3.53;73.86;98891.06;5073547;28;20037;-55
2022/12/24 01:55:15;;;;;;;23.38;13.63;;;;;;;3.58;74.21;98883.66;5073752;28;20020;-54
2022/12/24 01:57:45;;;;;;;18.92;12.98;;;;;;;3.55;73.72;98889.16;5072576;28;20107;-52
2022/12/24 02:00:13;;;;;;;21.33;13.13;;;;;;;3.57;73.76;98897.84;5071857;28;20111;-53
2022/12/24 02:02:41;;;;;;;23.17;14.52;;;;;;;3.55;74.00;98905.06;5073571;28;20038;-55
2022/12/24 02:05:29;;;;;;;24.30;14.73;;;;;;;3.59;74.14;98901.25;5073607;28;20033;-57
2022/12/24 02:07:56;;;;;;;23.58;13.82;;;;;;;3.51;74.09;98903.56;5072884;28;20040;-64
2022/12/24 02:10:21;;;;;;;24.95;14.68;;;;;;;3.48;74.02;98898.47;5073619;28;20119;-54
2022/12/24 02:12:48;;;;;;;20.92;13.55;;;;;;;3.40;74.21;98896.34;5073370;28;20120;-57
2022/12/24 02:15:17;;;;;;;21.75;13.07;;;;;;;3.52;73.73;98910.56;5072747;28;20036;-55
2022/12/24 02:18:05;;;;;;;19.90;13.82;;;;;;;3.60;73.90;98902.09;5072569;28;20036;-57
2022/12/24 02:21:08;;;;;;;21.90;13.70;;;;;;;3.59;73.99;98906.53;5072749;28;20052;-52
2022/12/24 02:23:48;;;;;;;20.83;12.88;;;;;;;3.54;73.56;98903.34;5072916;28;20055;-53
2022/12/24 02:26:40;;;;;;;19.98;13.00;;;;;;;3.60;73.76;98902.09;5071860;28;20157;-57
2022/12/24 02:29:31;;;;;;;21.05;13.10;;;;;;;3.61;73.41;98908.25;5071886;28;20128;-54
2022/12/24 02:32:12;;;;;;;20.65;12.48;;;;;;;3.59;73.88;98909.19;5073101;28;20036;-62
2022/12/24 02:34:43;;;;;;;20.45;12.90;;;;;;;3.55;73.28;98902.41;5073057;28;20032;-53
2022/12/24 02:37:22;;;;;;;21.05;13.77;;;;;;;3.60;73.39;98918.00;5072493;28;20444;-54
2022/12/24 02:40:01;;;;;;;20.00;12.68;;;;;;;3.61;73.14;98918.81;5072565;28;20482;-59
2022/12/24 02:42:37;;;;;;;20.85;13.15;;;;;;;3.59;73.21;98908.34;5052889;28;20043;-55
2022/12/24 02:45:06;;;;;;;21.55;13.68;;;;;;;3.54;73.76;98911.28;5052672;28;20100;-57
2022/12/24 02:47:32;;;;;;;20.92;13.25;;;;;;;3.55;73.50;98910.34;5067926;28;20501;-56
2022/12/24 02:50:00;;;;;;;20.00;12.43;;;;;;;3.55;73.07;98905.06;5072883;28;20160;-60
2022/12/24 02:52:34;;;;;;;23.83;13.52;;;;;;;3.56;73.74;98903.28;5073128;28;20040;-54
2022/12/24 02:55:08;;;;;;;22.92;13.88;;;;;;;3.52;73.89;98899.97;5072194;28;20107;-54
2022/12/24 02:57:43;;;;;;;22.13;13.20;;;;;;;3.57;73.52;98897.84;5071194;28;20424;-55
2022/12/24 03:00:18;;;;;;;20.13;12.52;;;;;;;3.60;73.85;98904.75;5072477;28;20041;-55
2022/12/24 03:03:14;;;;;;;18.42;12.32;;;;;;;3.63;73.39;98899.25;5072154;28;20436;-54
2022/12/24 03:05:50;;;;;;;;;;;;;;;3.88;73.54;98901.13;5072249;28;20061;-56
2022/12/24 03:08:41;;;;;;;21.10;13.23;;;;;;;3.79;72.62;98901.72;5071438;28;19912;-53
2022/12/24 03:11:14;;;;;;;20.83;13.25;;;;;;;3.73;72.92;98905.63;5072124;28;20163;-53
2022/12/24 03:13:41;;;;;;;21.20;12.80;;;;;;;3.67;73.48;98897.25;5072187;28;20025;-55
2022/12/24 03:16:10;;;;;;;19.55;12.77;;;;;;;3.69;73.30;98898.00;5072231;28;20044;-58
2022/12/24 03:18:39;;;;;;;24.27;14.27;;;;;;;3.65;72.88;98888.56;5071765;28;20111;-56
2022/12/24 03:21:11;;;;;;;20.75;13.10;;;;;;;3.67;72.80;98886.66;5072113;28;20040;-58
2022/12/24 03:23:37;;;;;;;20.85;14.43;;;;;;;3.58;72.89;98883.66;5071310;28;20108;-53
2022/12/24 03:26:06;;;;;;;22.77;14.32;;;;;;;3.67;73.64;98897.25;5072279;28;20115;-53
2022/12/24 03:28:33;;;;;;;21.85;14.27;;;;;;;3.44;72.92;98860.78;5071757;28;20056;-56
2022/12/24 03:31:02;;;;;;;22.67;14.43;;;;;;;3.69;72.90;98905.94;5072377;28;20435;-56
2022/12/24 03:33:27;;;;;;;23.98;14.52;;;;;;;3.68;73.16;98896.31;5072517;28;20028;-57
2022/12/24 03:35:53;;;;;;;23.20;14.75;;;;;;;3.67;73.35;98891.97;5071930;28;20344;-55
2022/12/24 03:38:18;;;;;;;23.42;15.02;;;;;;;3.64;73.01;98900.94;5071875;28;20032;-56
2022/12/24 03:40:44;;;;;;;25.83;15.30;;;;;;;3.57;72.87;98887.28;5073291;28;20032;-53
2022/12/24 03:43:09;;;;;;;23.52;14.85;;;;;;;3.41;73.04;98868.09;5074882;28;20112;-54
2022/12/24 03:45:35;;;;;;;24.60;14.88;;;;;;;3.55;72.97;98893.63;5075912;28;20090;-53
2022/12/24 03:48:00;;;;;;;26.23;15.00;;;;;;;3.62;73.08;98894.91;5076269;28;20497;-57
2022/12/24 03:50:25;;;;;;;23.67;14.93;;;;;;;3.62;72.83;98904.63;5076225;28;20029;-55
2022/12/24 03:52:51;;;;;;;26.48;15.50;;;;;;;3.49;73.27;98897.53;5075598;28;20430;-51
2022/12/24 03:55:16;;;;;;;27.98;15.90;;;;;;;3.43;73.25;98900.59;5075728;28;20131;-54
2022/12/24 03:57:42;;;;;;;25.48;15.27;;;;;;;3.48;73.57;98903.78;5075027;28;20305;-54
2022/12/24 04:00:08;;;;;;;25.63;16.20;;;;;;;3.47;73.74;98902.06;5075745;28;20071;-57
2022/12/24 04:02:33;;;;;;;25.05;16.33;;;;;;;3.41;73.96;98911.25;5075297;28;20052;-58
2022/12/24 04:04:58;;;;;;;25.42;16.55;;;;;;;3.37;73.85;98895.69;5075973;28;20025;-51
2022/12/24 04:07:24;;;;;;;27.58;16.98;;;;;;;3.46;73.91;98903.03;5075929;28;20056;-55
2022/12/24 04:09:49;;;;;;;25.35;16.05;;;;;;;3.44;74.01;98891.69;5075830;28;20414;-58
2022/12/24 04:12:15;;;;;;;24.65;15.30;;;;;;;3.40;73.93;98892.84;5075354;28;20032;-54
2022/12/24 04:14:40;;;;;;;25.48;15.00;;;;;;;3.38;73.47;98882.38;5075589;28;20557;-53
2022/12/24 04:17:05;;;;;;;27.70;15.80;;;;;;;3.32;73.72;98888.06;5075506;28;20039;-52
2022/12/24 04:19:31;;;;;;;27.55;15.10;;;;;;;3.35;73.86;98894.94;5075653;28;20028;-50
2022/12/24 04:21:56;;;;;;;25.13;15.38;;;;;;;3.35;74.16;98887.84;5074932;28;20337;-54
2022/12/24 04:24:22;;;;;;;25.60;15.48;;;;;;;3.37;74.20;98895.69;5075207;28;20495;-57
2022/12/24 04:26:47;;;;;;;23.30;14.52;;;;;;;3.37;73.96;98900.97;5075519;28;20040;-56
2022/12/24 04:29:13;;;;;;;23.27;14.65;;;;;;;3.40;74.09;98890.22;5075365;28;20174;-55
2022/12/24 04:31:38;;;;;;;23.25;15.13;;;;;;;3.17;74.12;98852.88;5075085;28;20110;-53
2022/12/24 04:34:04;;;;;;;26.10;15.63;;;;;;;3.31;73.94;98865.19;5074800;28;20084;-57
2022/12/24 04:36:29;;;;;;;23.65;14.73;;;;;;;3.37;73.75;98879.81;5075523;28;20436;-53
2022/12/24 04:38:55;;;;;;;24.92;14.68;;;;;;;3.39;73.81;98877.94;5074450;28;20025;-54
2022/12/24 04:41:22;;;;;;;23.38;14.70;;;;;;;3.35;73.80;98884.34;5074789;28;20024;-57
2022/12/24 04:43:47;;;;;;;23.00;14.00;;;;;;;3.30;74.01;98864.34;5074593;28;20029;-55
2022/12/24 04:46:19;;;;;;;24.00;14.20;;;;;;;3.40;74.48;98874.34;5075273;28;20355;-57
2022/12/24 04:48:50;;;;;;;22.15;15.15;;;;;;;3.40;74.22;98877.81;5075148;28;20048;-55
2022/12/24 04:51:16;;;;;;;24.75;14.98;;;;;;;3.38;74.35;98870.94;5074304;28;20052;-54
2022/12/24 04:53:42;;;;;;;24.05;14.68;;;;;;;3.42;74.26;98888.31;5074492;28;20110;-53
2022/12/24 04:56:14;;;;;;;25.52;15.18;;;;;;;3.40;73.61;98884.91;5075047;28;20082;-54
2022/12/24 04:58:39;;;;;;;28.67;16.52;;;;;;;3.38;73.99;98887.66;5074406;28;20356;-53
2022/12/24 05:01:11;;;;;;;25.92;15.23;;;;;;;3.36;74.03;98878.09;5074266;28;20036;-64
2022/12/24 05:03:37;;;;;;;24.05;15.10;;;;;;;3.40;73.57;98869.03;5074235;28;20040;-52
2022/12/24 05:06:04;;;;;;;24.20;15.38;;;;;;;3.33;74.19;98862.44;5074273;28;20036;-51
2022/12/24 05:08:30;;;;;;;24.30;14.77;;;;;;;3.37;73.91;98869.22;5073184;28;20352;-53
2022/12/24 05:10:59;;;;;;;26.80;15.10;;;;;;;3.38;74.44;98870.94;5074337;28;20032;-53
2022/12/24 05:13:25;;;;;;;26.70;15.85;;;;;;;3.35;74.11;98871.13;5074078;28;20387;-54
2022/12/24 05:15:50;;;;;;;28.10;16.33;;;;;;;3.40;74.37;98866.41;5074297;28;20032;-53
2022/12/24 05:18:16;;;;;;;25.13;14.95;;;;;;;3.43;74.21;98852.97;5074115;28;20039;-60
2022/12/24 05:20:42;;;;;;;27.23;16.08;;;;;;;3.50;74.48;98862.16;5074203;28;20036;-55
2022/12/24 05:28:41;;;;;;;27.98;15.77;;;;;;;3.67;73.56;98865.50;5073920;28;20100;-53
2022/12/24 05:31:07;;;;;;;25.45;15.70;;;;;;;3.65;73.05;98852.34;5073989;28;20120;-61
2022/12/24 05:33:32;;;;;;;25.88;15.65;;;;;;;3.61;73.74;98844.72;5074057;28;20048;-60
2022/12/24 05:35:58;;;;;;;26.38;15.95;;;;;;;3.63;73.42;98848.97;5072952;28;20039;-58
2022/12/24 05:38:23;;;;;;;26.95;16.13;;;;;;;3.63;73.36;98851.59;5074239;28;20428;-61
2022/12/24 05:40:48;;;;;;;27.60;16.95;;;;;;;3.66;73.35;98855.84;5072610;28;20032;-56
2022/12/24 05:43:14;;;;;;;25.70;16.17;;;;;;;3.67;73.54;98849.59;5073749;28;20032;-58
2022/12/24 05:45:39;;;;;;;28.70;16.92;;;;;;;3.65;73.53;98846.22;5074128;28;20060;-61
2022/12/24 05:48:06;;;;;;;29.23;16.73;;;;;;;3.65;74.26;98856.81;5073737;28;20040;-60
2022/12/24 05:50:33;;;;;;;28.45;16.45;;;;;;;3.62;73.71;98847.28;5073125;28;20028;-58
2022/12/24 05:52:58;;;;;;;30.75;17.13;;;;;;;3.64;74.05;98849.81;5073952;28;20036;-54
2022/12/24 05:55:23;;;;;;;27.40;16.88;;;;;;;3.61;74.20;98839.41;5073724;28;20364;-63
2022/12/24 05:57:49;;;;;;;26.35;16.08;;;;;;;3.66;73.82;98848.75;5073035;28;20055;-56
2022/12/24 06:00:15;;;;;;;26.80;15.38;;;;;;;3.76;73.54;98858.72;5073189;28;20033;-56
2022/12/24 06:02:40;;;;;;;26.15;16.45;;;;;;;3.66;73.61;98832.88;5073412;28;20025;-59
2022/12/24 06:05:06;;;;;;;24.58;15.18;;;;;;;3.79;73.17;98851.41;5072125;28;20036;-59
2022/12/24 06:07:31;;;;;;;25.95;15.93;;;;;;;3.70;73.43;98838.81;5072951;28;20029;-58
2022/12/24 06:09:56;;;;;;;27.05;15.15;;;;;;;3.71;73.61;98848.44;5073272;28;20133;-58
2022/12/24 06:12:22;;;;;;;24.95;15.63;;;;;;;3.67;73.71;98842.50;5073138;28;20417;-59
2022/12/24 06:14:48;;;;;;;25.88;15.25;;;;;;;3.69;73.74;98847.72;5073556;28;20127;-58
2022/12/24 06:17:13;;;;;;;25.77;14.88;;;;;;;3.69;73.50;98855.66;5073054;28;20483;-57
2022/12/24 06:19:39;;;;;;;21.63;13.98;;;;;;;3.67;73.63;98836.38;5072675;28;20411;-61
2022/12/24 06:22:04;;;;;;;22.05;13.32;;;;;;;3.72;73.18;98853.63;5073562;28;20028;-60
2022/12/24 06:24:29;;;;;;;20.52;13.38;;;;;;;3.66;73.30;98843.44;5072989;28;20043;-61
2022/12/24 06:26:55;;;;;;;20.38;13.13;;;;;;;3.68;73.41;98851.31;5072362;28;20455;-61
2022/12/24 06:29:21;;;;;;;25.10;13.82;;;;;;;3.69;73.54;98851.19;5072285;28;20045;-59
2022/12/24 06:31:46;;;;;;;21.42;12.75;;;;;;;3.71;73.59;98843.16;5073213;28;20033;-61
2022/12/24 06:34:11;;;;;;;24.45;14.15;;;;;;;3.70;73.13;98850.22;5072890;28;20051;-60
2022/12/24 06:36:37;;;;;;;23.55;13.77;;;;;;;3.69;73.69;98848.53;5072646;28;20021;-58
2022/12/24 06:39:02;;;;;;;20.88;13.82;;;;;;;3.66;73.56;98853.22;5072827;28;20063;-58
2022/12/24 06:41:28;;;;;;;23.25;14.23;;;;;;;3.59;73.60;98837.72;5072867;28;20056;-57
2022/12/24 06:43:53;;;;;;;22.20;13.35;;;;;;;3.65;73.66;98847.06;5072670;28;20028;-57
2022/12/24 06:46:19;;;;;;;21.90;14.40;;;;;;;3.58;73.66;98841.31;5072665;28;20031;-54
2022/12/24 06:48:45;;;;;;;24.83;14.88;;;;;;;3.57;73.78;98844.91;5072646;28;20059;-61
2022/12/24 06:51:12;;;;;;;26.08;13.68;;;;;;;3.54;74.45;98845.13;5072628;28;20371;-60
2022/12/24 06:53:38;;;;;;;26.48;15.20;;;;;;;3.51;74.23;98840.06;5073078;28;20040;-60
2022/12/24 06:56:05;;;;;;;23.83;14.70;;;;;;;3.54;74.89;98834.53;5072451;28;20534;-58
2022/12/24 06:58:32;;;;;;;24.50;14.10;;;;;;;3.54;74.89;98839.00;5072034;28;20025;-59
2022/12/24 07:01:00;;;;;;;25.73;15.50;;;;;;;3.35;75.28;98802.31;5072612;28;20077;-59
2022/12/24 07:03:26;;;;;;;27.92;15.82;;;;;;;3.41;75.29;98813.34;5072507;28;20439;-58
2022/12/24 07:05:52;;;;;;;26.02;15.75;;;;;;;3.63;75.17;98841.03;5072502;28;20037;-58
2022/12/24 07:08:18;;;;;;;28.85;16.23;;;;;;;3.67;75.25;98829.25;5072800;28;20036;-59
2022/12/24 07:10:43;;;;;;;27.70;15.40;;;;;;;3.75;74.92;98842.00;5072599;28;20117;-63
2022/12/24 07:13:09;;;;;;;24.40;15.10;;;;;;;3.74;74.68;98835.00;5068649;28;20017;-62
2022/12/24 07:15:34;;;;;;;24.27;14.20;;;;;;;3.81;74.21;98841.56;5072194;28;20033;-60
2022/12/24 07:17:59;;;;;;;28.73;15.32;;;;;;;3.78;74.59;98852.38;5071391;28;20719;-63
2022/12/24 07:20:25;;;;;;;24.10;13.98;;;;;;;3.79;74.50;98843.47;5071640;28;20101;-60
2022/12/24 07:22:50;;;;;;;27.42;15.13;;;;;;;3.78;74.95;98836.47;5072070;28;20025;-59
2022/12/24 07:25:16;;;;;;;27.55;14.32;;;;;;;3.82;74.44;98848.53;5070785;28;20503;-60
2022/12/24 07:27:42;;;;;;;27.42;15.05;;;;;;;3.77;74.92;98834.78;5072115;28;20036;-55
2022/12/24 07:30:08;;;;;;;26.02;15.20;;;;;;;3.78;74.68;98846.22;5071938;28;20256;-60
2022/12/24 07:32:34;;;;;;;24.17;14.52;;;;;;;3.73;74.53;98836.78;5071828;28;20059;-57
2022/12/24 07:34:59;;;;;;;27.33;15.05;;;;;;;3.80;74.49;98841.69;5072077;28;20112;-57
2022/12/24 07:37:25;;;;;;;23.73;14.57;;;;;;;3.70;74.09;98818.47;5071609;28;20352;-60
2022/12/24 07:39:50;;;;;;;25.70;14.90;;;;;;;3.79;74.79;98840.81;5072049;28;20036;-57
2022/12/24 07:42:15;;;;;;;27.25;16.05;;;;;;;3.82;74.15;98845.91;5072027;28;20037;-58
2022/12/24 07:44:41;;;;;;;27.35;16.33;;;;;;;3.83;74.02;98850.25;5072105;28;20024;-57
2022/12/24 07:47:06;;;;;;;27.00;14.77;;;;;;;3.83;74.21;98844.94;5071970;28;20029;-59
2022/12/24 07:49:32;;;;;;;26.30;14.77;;;;;;;3.70;73.77;98813.16;5071878;28;20039;-58
2022/12/24 07:51:57;;;;;;;24.77;15.05;;;;;;;3.86;73.78;98838.59;5071827;28;20115;-60
2022/12/24 07:54:23;;;;;;;25.10;14.80;;;;;;;3.76;73.50;98830.44;5071478;28;20108;-55
2022/12/24 07:56:48;;;;;;;22.98;13.82;;;;;;;3.64;73.78;98804.81;5071756;28;20075;-55
2022/12/24 07:59:14;;;;;;;21.95;13.57;;;;;;;3.69;73.81;98821.22;5071675;28;20090;-58
2022/12/24 08:01:40;;;;;;;21.92;12.77;;;;;;;3.70;73.95;98817.63;5071543;28;20051;-59
2022/12/24 08:04:06;;;;;;;20.95;13.73;;;;;;;3.78;73.69;98844.41;5072005;28;20372;-62
2022/12/24 08:06:31;;;;;;;22.45;13.10;;;;;;;3.74;73.34;98829.69;5070825;28;20041;-60
2022/12/24 08:08:57;;;;;;;20.02;12.65;;;;;;;3.76;73.55;98837.56;5071731;28;20032;-61
2022/12/24 08:11:22;;;;;;;19.60;12.63;;;;;;;3.81;73.39;98838.91;5071187;28;20024;-63
2022/12/24 08:13:47;;;;;;;19.40;11.63;;;;;;;3.86;73.12;98842.13;5071360;28;20036;-63
2022/12/24 08:16:13;;;;;;;20.17;12.50;;;;;;;3.70;72.92;98812.34;5071852;28;20028;-59
2022/12/24 08:18:38;;;;;;;20.65;13.07;;;;;;;3.90;72.88;98844.53;5071610;28;20033;-60
2022/12/24 08:21:07;;;;;;;19.33;12.73;;;;;;;3.96;73.05;98846.75;5071036;28;20440;-56
2022/12/24 08:23:33;;;;;;;19.27;12.07;;;;;;;3.94;72.88;98846.84;5071336;28;20025;-59
2022/12/24 08:25:59;;;;;;;20.65;11.73;;;;;;;3.91;72.62;98833.00;5071349;28;20445;-56
2022/12/24 08:28:24;;;;;;;18.00;11.38;;;;;;;3.92;72.95;98832.03;5074860;28;20173;-59
2022/12/24 08:30:50;;;;;;;18.42;11.48;;;;;;;3.97;72.34;98849.28;5074498;28;20041;-56
2022/12/24 08:33:17;;;;;;;18.52;11.95;;;;;;;3.96;72.77;98830.88;5074831;28;20062;-59
2022/12/24 08:35:49;;;;;;;16.48;10.82;;;;;;;4.01;72.51;98836.69;5075434;28;20472;-55
2022/12/24 08:38:15;;;;;;;16.55;10.80;;;;;;;3.53;72.02;98748.16;5074847;28;20462;-60
2022/12/24 08:40:41;;;;;;;16.83;10.68;;;;;;;3.95;72.44;98837.13;5074671;28;20041;-54
2022/12/24 08:43:07;;;;;;;16.45;10.38;;;;;;;3.93;72.39;98844.34;5075147;28;20117;-58
2022/12/24 08:45:32;;;;;;;17.73;10.50;;;;;;;3.91;72.43;98831.19;5074847;28;20436;-55
2022/12/24 08:47:59;;;;;;;17.90;10.25;;;;;;;3.98;72.31;98826.31;5075160;28;20044;-58
2022/12/24 08:50:25;;;;;;;17.75;10.40;;;;;;;3.97;72.70;98824.63;5074686;28;20082;-55
2022/12/24 08:52:50;;;;;;;15.07;10.13;;;;;;;3.87;71.85;98789.97;5074289;28;20436;-58
2022/12/24 08:55:15;;;;;;;16.95;10.18;;;;;;;4.08;72.24;98826.53;5074626;28;20060;-58
2022/12/24 08:57:41;;;;;;;15.10;9.88;;;;;;;4.09;71.59;98821.09;5074490;28;20161;-56
2022/12/24 09:00:08;;;;;;;13.00;9.82;;;;;;;4.08;71.76;98822.06;5074721;28;20950;-57
2022/12/24 09:02:34;;;;;;;13.25;8.57;;;;;;;4.13;71.36;98822.59;5074632;28;20016;-58
2022/12/24 09:04:59;;;;;;;13.80;9.10;;;;;;;4.05;71.51;98822.28;5074688;28;20025;-67
2022/12/24 09:07:25;;;;;;;15.50;10.07;;;;;;;3.99;72.15;98812.13;5074692;28;20021;-64
2022/12/24 09:09:50;;;;;;;13.25;9.60;;;;;;;4.06;71.75;98820.50;5073145;28;20039;-57
2022/12/24 09:12:16;;;;;;;12.80;8.82;;;;;;;4.08;71.76;98815.94;5074684;28;20115;-58
2022/12/24 09:14:41;;;;;;;13.02;8.80;;;;;;;4.12;72.09;98815.63;5073956;28;20043;-59
2022/12/24 09:17:06;;;;;;;12.98;8.20;;;;;;;4.08;71.49;98807.97;5074418;28;20055;-54
2022/12/24 09:19:32;;;;;;;11.27;8.13;;;;;;;4.17;70.91;98825.88;5074295;28;20028;-57
2022/12/24 09:21:57;;;;;;;13.02;9.25;;;;;;;4.20;71.22;98814.22;5074376;28;20036;-53
2022/12/24 09:24:23;;;;;;;12.65;8.77;;;;;;;4.16;70.94;98814.44;5074078;28;20032;-52
2022/12/24 09:26:48;;;;;;;14.60;9.30;;;;;;;4.12;71.52;98802.38;5073546;28;20438;-55
2022/12/24 09:29:15;;;;;;;10.80;8.38;;;;;;;4.20;71.21;98807.09;5073864;28;20071;-59
2022/12/24 09:31:41;;;;;;;12.02;7.93;;;;;;;4.11;71.36;98792.72;5073892;28;20090;-58
2022/12/24 09:34:07;;;;;;;11.63;8.25;;;;;;;4.09;71.64;98799.91;5072910;28;20079;-57
2022/12/24 09:36:33;;;;;;;15.07;8.93;;;;;;;4.14;71.79;98797.81;5074314;28;20453;-56
2022/12/24 09:38:59;;;;;;;12.68;8.27;;;;;;;4.08;71.60;98784.13;5073288;28;20028;-55
2022/12/24 09:41:54;;;;;;;12.77;8.50;;;;;;;4.22;71.98;98791.97;5073199;28;20031;-53
2022/12/24 09:44:28;;;;;;;15.18;9.75;;;;;;;4.16;71.42;98801.19;5074275;28;20069;-59
2022/12/24 09:46:56;;;;;;;14.55;8.40;;;;;;;4.16;71.14;98792.38;5073723;28;20119;-59
2022/12/24 09:49:27;;;;;;;16.83;9.85;;;;;;;4.07;71.06;98772.69;5072303;28;20089;-56
2022/12/24 09:51:59;;;;;;;14.65;9.02;;;;;;;4.20;71.00;98793.84;5073489;28;20025;-53
2022/12/24 09:54:28;;;;;;;14.18;8.63;;;;;;;4.11;71.26;98790.09;5073875;28;20039;-54
2022/12/24 09:56:57;;;;;;;11.63;8.38;;;;;;;4.09;71.00;98791.97;5073038;28;20028;-57
2022/12/24 09:59:30;;;;;;;14.68;8.85;;;;;;;4.05;71.24;98795.78;5073016;28;20047;-62
2022/12/24 10:01:56;;;;;;;11.77;8.45;;;;;;;3.96;71.28;98807.03;5061462;28;20453;-58
2022/12/24 10:04:27;;;;;;;14.88;8.40;;;;;;;3.77;71.73;98779.19;5073279;28;20158;-65
2022/12/24 10:07:08;;;;;;;15.30;8.95;;;;;;;3.94;71.84;98801.00;5073347;28;20035;-53
2022/12/24 10:09:59;;;;;;;15.15;9.15;;;;;;;4.02;71.52;98801.31;5073163;28;20055;-57
2022/12/24 10:12:44;;;;;;;13.00;8.43;;;;;;;3.94;71.76;98793.06;5073590;28;20036;-54
2022/12/24 10:15:31;;;;;;;12.63;9.05;;;;;;;3.86;71.54;98796.25;5072442;28;20025;-56
2022/12/24 10:18:05;;;;;;;15.10;8.25;;;;;;;3.91;71.46;98806.50;5072580;28;20025;-53
2022/12/24 10:20:43;;;;;;;13.43;8.95;;;;;;;3.80;71.83;98802.78;5071658;28;20032;-55
2022/12/24 10:23:30;;;;;;;11.93;8.10;;;;;;;3.77;71.88;98807.47;5073133;28;20123;-55
2022/12/24 10:26:07;;;;;;;12.43;8.27;;;;;;;3.65;72.43;98802.06;5071920;28;20481;-60
2022/12/24 10:28:46;;;;;;;13.68;8.45;;;;;;;3.65;72.56;98806.50;5072799;28;20398;-59
2022/12/24 10:31:12;;;;;;;12.13;8.07;;;;;;;3.59;72.37;98807.78;5072308;28;20124;-61
2022/12/24 10:33:42;;;;;;;11.05;8.00;;;;;;;3.58;72.22;98809.56;5072763;28;20527;-58
2022/12/24 10:36:16;;;;;;;10.77;7.80;;;;;;;3.58;73.05;98809.56;5072915;28;20029;-60
2022/12/24 10:38:42;;;;;;;10.68;7.32;;;;;;;3.53;72.13;98814.31;5072105;28;20036;-59
2022/12/24 10:41:08;;;;;;;9.68;6.60;;;;;;;3.48;72.24;98803.22;5072140;28;20024;-60
2022/12/24 10:43:35;;;;;;;9.30;7.18;;;;;;;3.44;72.50;98796.44;5072219;28;20105;-58
2022/12/24 10:46:13;;;;;;;9.30;6.75;;;;;;;3.45;72.75;98795.47;5072621;28;20043;-60
2022/12/24 10:48:44;;;;;;;11.55;7.40;;;;;;;3.45;72.90;98806.06;5072510;28;20032;-62
2022/12/24 10:51:18;;;;;;;10.52;7.47;;;;;;;3.47;73.17;98805.94;5071197;28;20054;-62
2022/12/24 10:54:15;;;;;;;14.90;9.85;;;;;;;3.50;73.46;98806.59;5070249;28;20578;-56
2022/12/24 10:56:43;;;;;;;11.57;7.18;;;;;;;3.39;72.88;98795.91;5056305;28;20052;-62
2022/12/24 10:59:49;;;;;;;13.07;7.97;;;;;;;3.49;73.09;98802.25;5070308;28;20673;-61
2022/12/24 11:02:26;;;;;;;12.10;8.03;;;;;;;3.52;73.10;98814.44;5071343;28;20483;-62
2022/12/24 11:04:52;;;;;;;10.85;7.70;;;;;;;3.41;73.13;98797.47;5054132;28;20028;-61
2022/12/24 11:07:20;;;;;;;12.20;8.45;;;;;;;3.47;72.95;98812.09;5070820;28;20025;-62
2022/12/24 11:09:59;;;;;;;12.48;7.35;;;;;;;3.55;73.04;98816.88;5071756;28;20067;-63
2022/12/24 11:12:29;;;;;;;10.57;7.13;;;;;;;3.27;73.06;98789.66;5072234;28;20028;-61
2022/12/24 11:15:03;;;;;;;13.48;7.72;;;;;;;3.51;72.35;98816.22;5072554;28;20029;-66
2022/12/24 11:17:29;;;;;;;12.13;6.82;;;;;;;3.35;73.15;98815.56;5070892;28;20026;-64
2022/12/24 11:19:56;;;;;;;11.85;7.32;;;;;;;3.32;72.45;98824.56;5071787;28;20051;-66
2022/12/24 11:22:28;;;;;;;13.18;7.03;;;;;;;3.32;73.13;98829.00;5072261;28;20314;-63
2022/12/24 11:25:37;;;;;;;12.70;7.38;;;;;;;3.35;73.21;98826.16;5072250;28;20035;-61
2022/12/24 11:28:32;;;;;;;9.20;6.90;;;;;;;3.36;73.39;98830.47;5071760;28;20039;-61
2022/12/24 11:30:57;;;;;;;11.25;6.75;;;;;;;3.25;73.73;98833.84;5066095;28;20132;-62
2022/12/24 11:33:23;;;;;;;11.15;6.57;;;;;;;3.01;73.46;98787.78;5071018;28;20119;-54
2022/12/24 11:35:53;;;;;;;10.25;6.72;;;;;;;3.16;73.52;98816.81;5070369;28;20044;-52
2022/12/24 11:38:22;;;;;;;9.43;6.55;;;;;;;3.21;73.95;98825.28;5071792;28;20059;-52
2022/12/24 11:40:56;;;;;;;9.45;7.22;;;;;;;3.27;73.36;98835.44;5069010;28;20040;-57
2022/12/24 11:43:21;;;;;;;9.88;6.55;;;;;;;3.12;73.74;98812.66;5071435;28;20048;-54
2022/12/24 11:45:53;;;;;;;9.55;6.38;;;;;;;3.14;73.91;98811.59;5067898;28;20029;-52